Henry Post Army Air Field (Fort Sill)
KFSI : rendu visible

Aérodrome :











RETROUVEZ-NOUS SUR...

 
LOGIN :

S'inscrire | Disclaimer

   EN    FR    IT 

 









Légende :    VFR   VFR Marginal   IFR   IFR Intensif   IFR Très Intensif
Visi : 
Plafond : 
>= 8 km
>= 3000ft
5 à 8 km
1000 à 3000 ft
1500m à 5 km
500 à 1000 ft
800 à 1500m
200 à 500 ft
< 800m
< 200 ft
Symboles :   Orages  Brouillard  Fortes neiges  Fortes précipitations  Vent > 20 kt






- Altitude de l'aérodrome : 1189 ft


KFSI - Henry Post Army Air Field (Fort Sill)

DERNIER METAR :
  • 200156Z AUTO 00000KT 10SM CLR 04/M06 A3050 RMK AO2 SLP338 T00421064 PNO $

METARs EXPIRÉS :
  • 200056Z AUTO 29003KT 10SM CLR 06/M07 A3049 RMK AO2 SLP334 T00561069 PNO $
  • 192356Z AUTO 33003KT 10SM CLR 08/M07 A3048 RMK AO2 SLP329 T00761069 10115 20066 55001 PNO $

Prévision TAF périmée.



MET'MAP, la Météo Aéronautique d'un coup d'oeil ! - Copyright ORBIFLY Décembre 2007 - Disclaimer

ORBIFLY MET'MAP TEAM :

Programmation & Développement : Alexandra Zaïnal
Sur une idée originale de : Baudouin d'Aumeries
Assistance à la programmation : Marc-Olivier Méhu
Soutien technique & logistique : Manuel Goepfert

Contact : metmap@orbifly.com




SOURCES & CREDITS :

   NOAA       Earth
Advisory